createdAt,value
2023-12-30T07:39:29.196Z,97571.73
2023-12-30T07:41:55.764Z,97563.48
2023-12-30T07:44:22.255Z,97561.35
2023-12-30T07:46:48.788Z,97557.13
2023-12-30T07:49:17.982Z,97555.55
2023-12-30T07:51:45.100Z,97557.33
2023-12-30T07:54:13.557Z,97562.84
2023-12-30T07:56:40.150Z,97565.34
2023-12-30T07:59:06.575Z,97567.31
2023-12-30T08:01:33.192Z,97571.34
2023-12-30T08:04:00.137Z,97575.25
2023-12-30T08:06:26.900Z,97565.77
2023-12-30T08:08:54.064Z,97571.05
2023-12-30T08:11:20.720Z,97573.20
2023-12-30T08:13:47.252Z,97564.36
2023-12-30T08:16:14.201Z,97570.11
2023-12-30T08:18:40.802Z,97574.67
2023-12-30T08:21:07.539Z,97573.84
2023-12-30T08:23:34.078Z,97576.20
2023-12-30T08:26:00.808Z,97572.45
2023-12-30T08:28:27.419Z,97577.32
2023-12-30T08:30:55.459Z,97570.77
2023-12-30T08:33:22.462Z,97575.59
2023-12-30T08:35:49.918Z,97572.53
2023-12-30T08:38:17.375Z,97574.78
2023-12-30T08:40:44.569Z,97573.66
2023-12-30T08:43:12.672Z,97571.23
2023-12-30T08:45:39.451Z,97575.95
2023-12-30T08:48:07.292Z,97576.60
2023-12-30T08:50:34.040Z,97582.95
2023-12-30T08:53:00.855Z,97579.11
2023-12-30T08:55:27.672Z,97578.06
2023-12-30T08:57:54.435Z,97570.37
2023-12-30T09:00:21.223Z,97574.11
2023-12-30T09:02:48.648Z,97576.60
2023-12-30T09:05:23.677Z,97575.61
2023-12-30T09:07:50.426Z,97575.94
2023-12-30T09:10:18.105Z,97576.04
2023-12-30T09:12:47.909Z,97577.46
2023-12-30T09:15:14.450Z,97578.55
2023-12-30T09:17:41.274Z,97576.81
2023-12-30T09:20:10.051Z,97572.20
2023-12-30T09:22:37.063Z,97569.14
2023-12-30T09:25:04.177Z,97569.38
2023-12-30T09:27:30.993Z,97563.52
2023-12-30T09:29:57.533Z,97566.92
2023-12-30T09:32:24.172Z,97561.23
2023-12-30T09:34:51.022Z,97557.98
2023-12-30T09:37:19.405Z,97553.15
2023-12-30T09:39:46.227Z,97554.83
2023-12-30T09:42:12.759Z,97544.72
2023-12-30T09:44:40.319Z,97543.89
2023-12-30T09:47:11.970Z,97540.33
2023-12-30T09:49:38.690Z,97540.27
2023-12-30T09:52:08.549Z,97536.17
2023-12-30T09:54:43.202Z,97535.80
2023-12-30T09:57:15.522Z,97533.17
2023-12-30T09:59:42.568Z,97531.63
2023-12-30T10:02:10.776Z,97533.70
2023-12-30T10:04:38.182Z,97529.77
2023-12-30T10:07:06.185Z,97525.14
2023-12-30T10:09:33.069Z,97523.42
2023-12-30T10:11:59.531Z,97517.46
2023-12-30T10:14:26.274Z,97516.38
2023-12-30T10:16:53.112Z,97513.42
2023-12-30T10:19:19.894Z,97516.59
2023-12-30T10:21:46.492Z,97512.88
2023-12-30T10:24:13.025Z,97514.18
2023-12-30T10:26:40.587Z,97518.63
2023-12-30T10:29:07.632Z,97519.88
2023-12-30T10:31:34.298Z,97525.57
2023-12-30T10:34:02.641Z,97528.48
2023-12-30T10:36:29.286Z,97526.86
2023-12-30T10:38:56.041Z,97528.10
2023-12-30T10:41:22.674Z,97538.91
2023-12-30T10:43:49.361Z,97534.88
2023-12-30T10:46:16.107Z,97530.00
2023-12-30T10:49:04.528Z,97533.12
2023-12-30T10:51:34.088Z,97533.88
2023-12-30T10:54:01.859Z,97534.59
2023-12-30T10:56:29.812Z,97530.55
2023-12-30T10:58:59.844Z,97535.12
2023-12-30T11:01:26.570Z,97524.01
2023-12-30T11:03:53.693Z,97522.31
2023-12-30T11:06:42.138Z,97518.85
2023-12-30T11:09:14.126Z,97511.23
2023-12-30T11:11:52.080Z,97502.90
2023-12-30T11:14:18.730Z,97502.06
2023-12-30T11:16:46.709Z,97498.05
2023-12-30T11:19:43.367Z,97496.73
2023-12-30T11:22:10.173Z,97484.64
2023-12-30T11:24:37.970Z,97472.51
2023-12-30T11:27:05.842Z,97474.91
2023-12-30T11:29:32.470Z,97472.23
2023-12-30T11:32:01.574Z,97469.42
2023-12-30T11:34:28.393Z,97458.71
2023-12-30T11:36:55.501Z,97454.39
2023-12-30T11:39:31.074Z,97464.11
2023-12-30T11:41:58.495Z,97471.77
2023-12-30T11:44:25.213Z,97471.32
2023-12-30T11:46:52.050Z,97473.10
2023-12-30T11:49:22.622Z,97468.55
2023-12-30T11:51:49.429Z,97467.39
2023-12-30T11:54:15.945Z,97474.18
2023-12-30T11:56:43.103Z,97466.52
2023-12-30T11:59:09.735Z,97469.41
2023-12-30T12:01:36.444Z,97466.94
2023-12-30T12:04:03.179Z,97468.94
2023-12-30T12:06:30.594Z,97474.12
2023-12-30T12:08:57.265Z,97473.89
2023-12-30T12:11:24.150Z,97470.33
2023-12-30T12:13:57.553Z,97467.64
2023-12-30T12:16:25.913Z,97466.02
2023-12-30T12:18:53.981Z,97460.77
2023-12-30T12:21:20.722Z,97463.86
2023-12-30T12:23:47.470Z,97460.33
2023-12-30T12:26:14.100Z,97459.57
2023-12-30T12:28:40.688Z,97461.60
2023-12-30T12:31:07.526Z,97460.11
2023-12-30T12:33:35.706Z,97461.59
2023-12-30T12:36:03.244Z,97461.13
2023-12-30T12:38:30.148Z,97461.81
2023-12-30T12:40:56.790Z,97462.52
2023-12-30T12:43:23.756Z,97462.05
2023-12-30T12:45:51.811Z,97458.97
2023-12-30T12:48:19.846Z,97459.51
2023-12-30T12:50:46.621Z,97467.00
2023-12-30T12:53:13.451Z,97460.42
2023-12-30T12:55:41.419Z,97455.15
2023-12-30T12:58:08.063Z,97461.41
2023-12-30T13:00:35.839Z,97457.22
2023-12-30T13:03:02.685Z,97458.69
2023-12-30T13:05:29.524Z,97463.08
2023-12-30T13:07:57.200Z,97461.05
2023-12-30T13:10:32.925Z,97463.13
2023-12-30T13:12:59.830Z,97458.54
2023-12-30T13:15:26.562Z,97464.02
2023-12-30T13:17:54.708Z,97466.70
2023-12-30T13:20:21.393Z,97462.39
2023-12-30T13:22:53.915Z,97464.05
2023-12-30T13:25:20.455Z,97465.63
2023-12-30T13:27:47.041Z,97463.77
2023-12-30T13:30:14.101Z,97469.15
2023-12-30T13:32:42.306Z,97468.93
2023-12-30T13:35:09.186Z,97476.05
2023-12-30T13:37:39.994Z,97478.94
2023-12-30T13:40:13.037Z,97480.19
2023-12-30T13:42:41.762Z,97485.90
2023-12-30T13:45:10.763Z,97487.73
2023-12-30T13:47:46.167Z,97487.42
2023-12-30T13:50:16.169Z,97485.11
2023-12-30T13:52:43.899Z,97482.95
2023-12-30T13:55:18.129Z,97480.24
2023-12-30T13:57:45.892Z,97471.99
2023-12-30T14:00:14.972Z,97475.61
2023-12-30T14:02:44.447Z,97478.63
2023-12-30T14:05:19.526Z,97478.79
2023-12-30T14:07:46.515Z,97482.88
2023-12-30T14:10:19.023Z,97485.80
2023-12-30T14:12:45.682Z,97487.90
2023-12-30T14:15:14.440Z,97489.46
2023-12-30T14:17:43.583Z,97492.70
2023-12-30T14:20:11.423Z,97492.63
2023-12-30T14:22:37.996Z,97492.55
2023-12-30T14:25:05.643Z,97487.45
2023-12-30T14:27:35.298Z,97488.54
2023-12-30T14:30:06.744Z,97485.39
2023-12-30T14:32:33.689Z,97485.83
2023-12-30T14:35:01.532Z,97490.19
2023-12-30T14:37:28.810Z,97491.48
2023-12-30T14:39:55.385Z,97492.20
2023-12-30T14:42:22.025Z,97490.18
2023-12-30T14:44:48.822Z,97490.70
2023-12-30T14:47:15.701Z,97494.23
2023-12-30T14:49:42.236Z,97496.14
2023-12-30T14:52:08.947Z,97500.30
2023-12-30T14:54:36.220Z,97500.67
2023-12-30T14:57:04.399Z,97502.95
2023-12-30T14:59:30.934Z,97504.48
2023-12-30T15:01:57.882Z,97503.23
2023-12-30T15:04:24.872Z,97504.16
2023-12-30T15:06:51.679Z,97506.66
2023-12-30T15:09:18.443Z,97502.70
2023-12-30T15:11:46.269Z,97505.95
2023-12-30T15:14:13.006Z,97504.00
2023-12-30T15:16:39.642Z,97509.85
2023-12-30T15:19:06.817Z,97534.46
2023-12-30T15:21:35.065Z,97558.61
2023-12-30T15:24:01.916Z,97552.89
2023-12-30T15:26:28.661Z,97586.50
2023-12-30T15:28:55.590Z,97616.64
2023-12-30T15:31:22.701Z,97548.77
2023-12-30T15:33:49.733Z,97526.98
2023-12-30T15:36:16.413Z,97527.71
2023-12-30T15:38:43.097Z,97529.54
2023-12-30T15:41:09.688Z,97536.70
2023-12-30T15:43:36.371Z,97541.26
2023-12-30T15:46:04.304Z,97549.28
2023-12-30T15:48:31.022Z,97561.46
2023-12-30T15:50:57.667Z,97569.56
2023-12-30T15:53:24.307Z,97577.52
2023-12-30T15:55:50.932Z,97566.00
2023-12-30T15:58:18.014Z,97564.01
2023-12-30T16:00:44.914Z,97559.75
2023-12-30T16:03:14.573Z,97554.19
2023-12-30T16:05:41.968Z,97553.27
2023-12-30T16:08:10.372Z,97557.43
2023-12-30T16:10:37.034Z,97561.52
2023-12-30T16:13:04.434Z,97562.92
2023-12-30T16:15:33.842Z,97568.70
2023-12-30T16:18:01.864Z,97564.92
2023-12-30T16:20:28.771Z,97568.55
2023-12-30T16:22:55.430Z,97563.71
2023-12-30T16:25:22.079Z,97570.61
2023-12-30T16:27:49.218Z,97566.45
2023-12-30T16:30:15.991Z,97570.14
2023-12-30T16:32:43.447Z,97579.32
2023-12-30T16:35:10.265Z,97575.45
2023-12-30T16:37:37.213Z,97575.83
2023-12-30T16:40:05.380Z,97594.17
2023-12-30T16:42:32.292Z,97603.83
2023-12-30T16:44:59.951Z,97604.81
2023-12-30T16:47:27.140Z,97599.54
2023-12-30T16:49:54.972Z,97592.98
2023-12-30T16:52:21.641Z,97592.76
2023-12-30T16:54:48.351Z,97603.34
2023-12-30T16:57:14.879Z,97612.85
2023-12-30T16:59:41.512Z,97608.70
2023-12-30T17:02:08.348Z,97601.50
2023-12-30T17:04:35.140Z,97606.36
2023-12-30T17:07:01.882Z,97612.76
2023-12-30T17:09:28.583Z,97618.75
2023-12-30T17:11:55.106Z,97623.20
2023-12-30T17:14:22.334Z,97623.66
2023-12-30T17:16:48.925Z,97631.14
2023-12-30T17:19:16.596Z,97631.67
2023-12-30T17:21:43.199Z,97627.64
2023-12-30T17:24:10.033Z,97632.79
2023-12-30T17:26:36.663Z,97629.64
2023-12-30T17:29:03.217Z,97629.77
2023-12-30T17:31:30.165Z,97633.93
2023-12-30T17:33:56.885Z,97644.95
2023-12-30T17:36:25.773Z,97653.91
2023-12-30T17:38:52.919Z,97653.66
2023-12-30T17:41:19.666Z,97657.20
2023-12-30T17:43:46.767Z,97665.52
2023-12-30T17:46:13.988Z,97657.48
2023-12-30T17:48:40.505Z,97659.33
2023-12-30T17:51:07.019Z,97665.44
2023-12-30T17:53:33.861Z,97670.35
2023-12-30T17:56:00.402Z,97667.66
2023-12-30T17:58:26.981Z,97666.89
2023-12-30T18:00:53.609Z,97673.05
2023-12-30T18:03:20.498Z,97678.13
2023-12-30T18:05:47.476Z,97683.80
2023-12-30T18:08:14.093Z,97679.92
2023-12-30T18:10:40.796Z,97685.94
2023-12-30T18:13:08.216Z,97690.02
2023-12-30T18:15:34.784Z,97690.49
2023-12-30T18:18:02.549Z,97688.20
2023-12-30T18:20:29.541Z,97686.58
2023-12-30T18:22:56.057Z,97697.00
2023-12-30T18:25:22.615Z,97697.09
2023-12-30T18:27:49.635Z,97704.02
2023-12-30T18:30:16.441Z,97712.84
2023-12-30T18:32:43.457Z,97710.45
2023-12-30T18:35:09.983Z,97714.23
2023-12-30T18:37:37.063Z,97718.71
2023-12-30T18:40:07.644Z,97721.67
2023-12-30T18:42:34.374Z,97724.59
2023-12-30T18:45:01.144Z,97731.54
2023-12-30T18:47:27.796Z,97736.18
2023-12-30T18:49:55.243Z,97741.67
2023-12-30T18:52:21.977Z,97742.15
2023-12-30T18:54:48.785Z,97738.21
2023-12-30T18:57:16.751Z,97734.59
2023-12-30T18:59:43.511Z,97735.38
2023-12-30T19:02:10.743Z,97745.19
2023-12-30T19:04:37.993Z,97742.86
2023-12-30T19:07:05.158Z,97742.10
2023-12-30T19:09:32.086Z,97741.83
2023-12-30T19:11:58.726Z,97745.59
2023-12-30T19:14:25.260Z,97755.57
2023-12-30T19:16:52.205Z,97756.80
2023-12-30T19:19:18.910Z,97760.27
2023-12-30T19:21:45.687Z,97760.73
2023-12-30T19:24:12.634Z,97761.66
2023-12-30T19:26:39.167Z,97769.70
2023-12-30T19:29:05.801Z,97772.33
2023-12-30T19:31:32.347Z,97769.70
2023-12-30T19:33:59.022Z,97773.63
2023-12-30T19:36:26.014Z,97773.88
2023-12-30T19:38:54.290Z,97777.89
2023-12-30T19:41:20.926Z,97773.52
2023-12-30T19:43:49.181Z,97774.05
2023-12-30T19:46:15.860Z,97772.58
2023-12-30T19:48:42.448Z,97772.77
2023-12-30T19:51:09.221Z,97768.27
2023-12-30T19:53:35.850Z,97771.16
2023-12-30T19:56:02.842Z,97769.09
2023-12-30T19:58:31.434Z,97761.76
2023-12-30T20:00:58.162Z,97761.15
2023-12-30T20:03:24.958Z,97765.08
2023-12-30T20:05:51.615Z,97769.25
2023-12-30T20:08:18.136Z,97777.14
2023-12-30T20:10:44.778Z,97773.36
2023-12-30T20:13:11.543Z,97776.98
2023-12-30T20:15:38.147Z,97777.99
2023-12-30T20:18:05.676Z,97781.62
2023-12-30T20:20:32.534Z,97780.16
2023-12-30T20:22:59.577Z,97785.02
2023-12-30T20:25:27.689Z,97787.38
2023-12-30T20:27:56.751Z,97787.66
2023-12-30T20:30:23.487Z,97783.13
2023-12-30T20:32:50.174Z,97781.06
2023-12-30T20:35:17.167Z,97782.73
2023-12-30T20:37:43.796Z,97785.69
2023-12-30T20:40:11.684Z,97790.86
2023-12-30T20:42:39.534Z,97796.58
2023-12-30T20:45:06.294Z,97794.20
2023-12-30T20:47:34.493Z,97799.82
2023-12-30T20:50:01.096Z,97799.88
2023-12-30T20:52:27.845Z,97804.36
2023-12-30T20:54:54.661Z,97808.92
2023-12-30T20:57:21.207Z,97810.71
2023-12-30T20:59:47.733Z,97811.73
2023-12-30T21:02:15.801Z,97806.16
2023-12-30T21:04:42.560Z,97807.34
2023-12-30T21:07:09.215Z,97808.55
2023-12-30T21:09:38.165Z,97809.02
2023-12-30T21:12:08.106Z,97813.28
2023-12-30T21:14:34.618Z,97810.73
2023-12-30T21:17:04.534Z,97817.21
2023-12-30T21:19:35.027Z,97822.11
2023-12-30T21:22:02.007Z,97826.65
2023-12-30T21:24:28.640Z,97821.64
2023-12-30T21:26:55.172Z,97819.56
2023-12-30T21:29:23.757Z,97822.34
2023-12-30T21:31:53.260Z,97820.80
2023-12-30T21:34:20.064Z,97813.93
2023-12-30T21:36:46.634Z,97820.42
2023-12-30T21:39:13.373Z,97826.90
2023-12-30T21:41:40.333Z,97828.75
2023-12-30T21:44:07.167Z,97832.39
2023-12-30T21:46:33.830Z,97833.91
2023-12-30T21:49:01.650Z,97834.17
2023-12-30T21:51:28.421Z,97833.30
2023-12-30T21:53:55.364Z,97830.69
2023-12-30T21:56:23.820Z,97831.40
2023-12-30T21:58:50.461Z,97825.84
2023-12-30T22:01:17.262Z,97828.64
2023-12-30T22:03:43.931Z,97834.14
2023-12-30T22:06:10.568Z,97830.52
2023-12-30T22:08:37.123Z,97831.38
2023-12-30T22:11:03.856Z,97830.14
2023-12-30T22:13:30.620Z,97833.79
2023-12-30T22:15:58.045Z,97831.69
2023-12-30T22:18:24.685Z,97828.61
2023-12-30T22:20:51.311Z,97826.23
2023-12-30T22:23:20.465Z,97821.81
2023-12-30T22:25:47.357Z,97816.09
2023-12-30T22:28:14.201Z,97818.89
2023-12-30T22:30:40.854Z,97821.27
2023-12-30T22:33:08.738Z,97824.77
2023-12-30T22:35:35.498Z,97824.00
2023-12-30T22:38:02.172Z,97827.09
2023-12-30T22:40:28.853Z,97834.58
2023-12-30T22:42:56.161Z,97831.02
2023-12-30T22:45:23.723Z,97837.98
2023-12-30T22:47:50.509Z,97838.66
2023-12-30T22:50:17.814Z,97841.15
2023-12-30T22:52:44.492Z,97839.84
2023-12-30T22:55:11.124Z,97835.15
2023-12-30T22:57:37.836Z,97828.11
2023-12-30T23:00:10.579Z,97841.79
2023-12-30T23:02:37.862Z,97841.50
2023-12-30T23:05:05.048Z,97842.64
2023-12-30T23:07:31.930Z,97843.05
2023-12-30T23:09:58.690Z,97842.64
2023-12-30T23:12:26.889Z,97833.94
2023-12-30T23:14:55.339Z,97838.13
2023-12-30T23:17:21.890Z,97846.77
2023-12-30T23:19:48.706Z,97850.48
2023-12-30T23:22:15.373Z,97849.23
2023-12-30T23:24:41.986Z,97839.65
2023-12-30T23:27:08.643Z,97837.96
2023-12-30T23:29:38.241Z,97840.14
2023-12-30T23:32:05.685Z,97835.83
2023-12-30T23:34:42.468Z,97839.39
2023-12-30T23:37:13.349Z,97838.88
2023-12-30T23:39:40.035Z,97836.30
2023-12-30T23:42:07.593Z,97846.88
2023-12-30T23:44:34.132Z,97845.33
2023-12-30T23:47:00.680Z,97839.38
2023-12-30T23:49:27.562Z,97841.92
2023-12-30T23:51:54.146Z,97845.64
2023-12-30T23:54:20.885Z,97846.05
2023-12-30T23:56:47.533Z,97839.58
2023-12-30T23:59:16.783Z,97842.36
